sensor_id;sensor_type;location;lat;lon;timestamp;pressure;altitude;pressure_sealevel;temperature;humidity
44751;BME280;30477;48.224;11.470;2024-01-07T00:02:12;95229.97;;;1.85;81.41
44751;BME280;30477;48.224;11.470;2024-01-07T00:04:37;95232.53;;;1.85;81.37
44751;BME280;30477;48.224;11.470;2024-01-07T00:07:04;95225.59;;;1.87;81.31
44751;BME280;30477;48.224;11.470;2024-01-07T00:09:29;95228.16;;;1.87;81.44
44751;BME280;30477;48.224;11.470;2024-01-07T00:11:54;95228.94;;;1.88;81.46
44751;BME280;30477;48.224;11.470;2024-01-07T00:14:20;95229.56;;;1.91;81.72
44751;BME280;30477;48.224;11.470;2024-01-07T00:16:45;95233.00;;;1.90;81.50
44751;BME280;30477;48.224;11.470;2024-01-07T00:19:11;95230.97;;;1.95;81.71
44751;BME280;30477;48.224;11.470;2024-01-07T00:21:36;95231.13;;;2.05;81.65
44751;BME280;30477;48.224;11.470;2024-01-07T00:24:01;95227.75;;;2.05;81.53
44751;BME280;30477;48.224;11.470;2024-01-07T00:26:27;95227.16;;;2.01;81.77
44751;BME280;30477;48.224;11.470;2024-01-07T00:28:52;95226.34;;;2.00;81.60
44751;BME280;30477;48.224;11.470;2024-01-07T00:31:17;95230.75;;;1.98;81.68
44751;BME280;30477;48.224;11.470;2024-01-07T00:33:43;95221.66;;;1.94;81.61
44751;BME280;30477;48.224;11.470;2024-01-07T00:36:08;95228.41;;;1.95;81.81
44751;BME280;30477;48.224;11.470;2024-01-07T00:38:33;95221.91;;;1.91;81.57
44751;BME280;30477;48.224;11.470;2024-01-07T00:40:59;95227.91;;;1.90;81.74
44751;BME280;30477;48.224;11.470;2024-01-07T00:43:24;95227.09;;;1.90;81.72
44751;BME280;30477;48.224;11.470;2024-01-07T00:45:49;95224.94;;;1.96;81.84
44751;BME280;30477;48.224;11.470;2024-01-07T00:48:15;95236.28;;;1.92;81.66
44751;BME280;30477;48.224;11.470;2024-01-07T00:50:41;95230.38;;;1.92;82.09
44751;BME280;30477;48.224;11.470;2024-01-07T00:53:07;95231.41;;;1.89;81.81
44751;BME280;30477;48.224;11.470;2024-01-07T00:55:32;95225.59;;;1.87;82.02
44751;BME280;30477;48.224;11.470;2024-01-07T00:57:57;95222.00;;;1.90;81.88
44751;BME280;30477;48.224;11.470;2024-01-07T01:00:23;95232.25;;;2.01;82.13
44751;BME280;30477;48.224;11.470;2024-01-07T01:02:48;95231.66;;;1.97;82.03
44751;BME280;30477;48.224;11.470;2024-01-07T01:05:13;95228.16;;;1.87;81.86
44751;BME280;30477;48.224;11.470;2024-01-07T01:07:39;95230.56;;;1.89;81.98
44751;BME280;30477;48.224;11.470;2024-01-07T01:10:05;95225.88;;;1.82;81.86
44751;BME280;30477;48.224;11.470;2024-01-07T01:12:30;95233.66;;;1.81;81.96
44751;BME280;30477;48.224;11.470;2024-01-07T01:14:55;95237.03;;;1.81;81.96
44751;BME280;30477;48.224;11.470;2024-01-07T01:17:21;95231.41;;;1.76;82.02
44751;BME280;30477;48.224;11.470;2024-01-07T01:19:46;95235.13;;;1.72;81.90
44751;BME280;30477;48.224;11.470;2024-01-07T01:22:11;95237.97;;;1.68;82.07
44751;BME280;30477;48.224;11.470;2024-01-07T01:24:37;95234.94;;;1.62;81.81
44751;BME280;30477;48.224;11.470;2024-01-07T01:27:02;95241.47;;;1.67;82.21
44751;BME280;30477;48.224;11.470;2024-01-07T01:29:27;95240.44;;;1.69;81.92
44751;BME280;30477;48.224;11.470;2024-01-07T01:31:53;95237.78;;;1.71;81.94
44751;BME280;30477;48.224;11.470;2024-01-07T01:34:18;95235.00;;;1.74;81.95
44751;BME280;30477;48.224;11.470;2024-01-07T01:36:43;95237.97;;;1.68;81.91
44751;BME280;30477;48.224;11.470;2024-01-07T01:39:09;95230.56;;;1.65;81.81
44751;BME280;30477;48.224;11.470;2024-01-07T01:41:34;95233.63;;;1.57;81.79
44751;BME280;30477;48.224;11.470;2024-01-07T01:44:00;95239.53;;;1.57;81.79
44751;BME280;30477;48.224;11.470;2024-01-07T01:46:28;95236.78;;;1.60;81.84
44751;BME280;30477;48.224;11.470;2024-01-07T01:48:54;95226.78;;;1.57;81.87
44751;BME280;30477;48.224;11.470;2024-01-07T01:51:19;95235.13;;;1.59;81.78
44751;BME280;30477;48.224;11.470;2024-01-07T01:53:47;95234.88;;;1.51;81.85
44751;BME280;30477;48.224;11.470;2024-01-07T01:56:13;95231.72;;;1.48;81.84
44751;BME280;30477;48.224;11.470;2024-01-07T01:58:38;95230.19;;;1.45;81.81
44751;BME280;30477;48.224;11.470;2024-01-07T02:01:04;95219.88;;;1.47;82.02
44751;BME280;30477;48.224;11.470;2024-01-07T02:03:29;95230.44;;;1.53;81.87
44751;BME280;30477;48.224;11.470;2024-01-07T02:05:56;95230.06;;;1.47;81.99
44751;BME280;30477;48.224;11.470;2024-01-07T02:08:22;95228.53;;;1.44;82.06
44751;BME280;30477;48.224;11.470;2024-01-07T02:10:48;95228.88;;;1.39;81.79
44751;BME280;30477;48.224;11.470;2024-01-07T02:13:13;95235.16;;;1.47;82.13
44751;BME280;30477;48.224;11.470;2024-01-07T02:15:38;95229.25;;;1.46;82.03
44751;BME280;30477;48.224;11.470;2024-01-07T02:18:04;95227.84;;;1.42;81.90
44751;BME280;30477;48.224;11.470;2024-01-07T02:20:29;95221.84;;;1.43;81.85
44751;BME280;30477;48.224;11.470;2024-01-07T02:22:55;95219.69;;;1.37;81.86
44751;BME280;30477;48.224;11.470;2024-01-07T02:25:22;95226.41;;;1.38;82.13
44751;BME280;30477;48.224;11.470;2024-01-07T02:27:48;95219.09;;;1.33;82.08
44751;BME280;30477;48.224;11.470;2024-01-07T02:30:13;95219.69;;;1.37;82.05
44751;BME280;30477;48.224;11.470;2024-01-07T02:32:38;95223.16;;;1.36;82.18
44751;BME280;30477;48.224;11.470;2024-01-07T02:35:04;95224.78;;;1.37;82.27
44751;BME280;30477;48.224;11.470;2024-01-07T02:37:29;95226.22;;;1.41;82.32
44751;BME280;30477;48.224;11.470;2024-01-07T02:39:55;95222.97;;;1.39;82.30
44751;BME280;30477;48.224;11.470;2024-01-07T02:42:20;95224.66;;;1.38;82.32
44751;BME280;30477;48.224;11.470;2024-01-07T02:44:45;95224.78;;;1.37;82.23
44751;BME280;30477;48.224;11.470;2024-01-07T02:47:11;95221.41;;;1.36;82.19
44751;BME280;30477;48.224;11.470;2024-01-07T02:49:36;95222.34;;;1.35;82.24
44751;BME280;30477;48.224;11.470;2024-01-07T02:52:01;95219.69;;;1.37;82.34
44751;BME280;30477;48.224;11.470;2024-01-07T02:54:27;95226.94;;;1.43;82.39
44751;BME280;30477;48.224;11.470;2024-01-07T02:56:52;95219.28;;;1.43;82.30
44751;BME280;30477;48.224;11.470;2024-01-07T02:59:17;95226.72;;;1.46;82.36
44751;BME280;30477;48.224;11.470;2024-01-07T03:01:42;95220.47;;;1.50;82.12
44751;BME280;30477;48.224;11.470;2024-01-07T03:04:10;95227.50;;;1.47;82.26
44751;BME280;30477;48.224;11.470;2024-01-07T03:06:36;95217.44;;;1.45;82.25
44751;BME280;30477;48.224;11.470;2024-01-07T03:09:01;95221.13;;;1.41;82.13
44751;BME280;30477;48.224;11.470;2024-01-07T03:11:28;95221.13;;;1.41;82.21
44751;BME280;30477;48.224;11.470;2024-01-07T03:13:53;95221.13;;;1.41;82.21
44751;BME280;30477;48.224;11.470;2024-01-07T03:16:20;95217.44;;;1.32;82.23
44751;BME280;30477;48.224;11.470;2024-01-07T03:18:48;95220.41;;;1.39;82.28
44751;BME280;30477;48.224;11.470;2024-01-07T03:21:17;95221.13;;;1.41;82.28
44751;BME280;30477;48.224;11.470;2024-01-07T03:23:43;95224.38;;;1.43;82.41
44751;BME280;30477;48.224;11.470;2024-01-07T03:26:09;95218.63;;;1.52;82.38
44751;BME280;30477;48.224;11.470;2024-01-07T03:28:34;95221.59;;;1.46;82.11
44751;BME280;30477;48.224;11.470;2024-01-07T03:31:04;95226.00;;;1.44;82.37
44751;BME280;30477;48.224;11.470;2024-01-07T03:33:30;95226.38;;;1.51;82.37
44751;BME280;30477;48.224;11.470;2024-01-07T03:35:55;95223.97;;;1.49;82.17
44751;BME280;30477;48.224;11.470;2024-01-07T03:38:20;95229.97;;;1.48;82.27
44751;BME280;30477;48.224;11.470;2024-01-07T03:40:46;95225.91;;;1.46;82.01
44751;BME280;30477;48.224;11.470;2024-01-07T03:43:11;95223.97;;;1.49;82.26
44751;BME280;30477;48.224;11.470;2024-01-07T03:45:37;95236.09;;;1.46;82.29
44751;BME280;30477;48.224;11.470;2024-01-07T03:48:02;95225.09;;;1.45;82.15
44751;BME280;30477;48.224;11.470;2024-01-07T03:50:27;95230.38;;;1.42;82.14
44751;BME280;30477;48.224;11.470;2024-01-07T03:52:53;95224.56;;;1.40;82.08
44751;BME280;30477;48.224;11.470;2024-01-07T03:55:18;95226.41;;;1.38;82.10
44751;BME280;30477;48.224;11.470;2024-01-07T03:57:43;95226.22;;;1.41;82.28
44751;BME280;30477;48.224;11.470;2024-01-07T04:00:09;95233.66;;;1.44;82.22
44751;BME280;30477;48.224;11.470;2024-01-07T04:02:35;95229.47;;;1.43;82.32
44751;BME280;30477;48.224;11.470;2024-01-07T04:05:00;95234.34;;;1.46;82.12
44751;BME280;30477;48.224;11.470;2024-01-07T04:07:25;95233.56;;;1.46;82.31
44751;BME280;30477;48.224;11.470;2024-01-07T04:09:51;95236.00;;;1.47;82.29
44751;BME280;30477;48.224;11.470;2024-01-07T04:12:16;95245.91;;;1.39;82.43
44751;BME280;30477;48.224;11.470;2024-01-07T04:14:43;95237.13;;;1.43;82.42
44751;BME280;30477;48.224;11.470;2024-01-07T04:17:08;95239.03;;;1.52;82.47
44751;BME280;30477;48.224;11.470;2024-01-07T04:19:36;95235.13;;;1.59;82.40
44751;BME280;30477;48.224;11.470;2024-01-07T04:22:02;95232.16;;;1.66;82.52
44751;BME280;30477;48.224;11.470;2024-01-07T04:24:27;95234.63;;;1.67;82.59
44751;BME280;30477;48.224;11.470;2024-01-07T04:26:53;95242.28;;;1.67;82.38
44751;BME280;30477;48.224;11.470;2024-01-07T04:29:19;95246.34;;;1.70;82.61
44751;BME280;30477;48.224;11.470;2024-01-07T04:31:44;95249.00;;;1.68;82.43
44751;BME280;30477;48.224;11.470;2024-01-07T04:34:09;95252.38;;;1.69;82.48
44751;BME280;30477;48.224;11.470;2024-01-07T04:36:35;95254.94;;;1.69;82.55
44751;BME280;30477;48.224;11.470;2024-01-07T04:39:00;95253.00;;;1.72;82.50
44751;BME280;30477;48.224;11.470;2024-01-07T04:41:25;95251.94;;;1.75;82.60
44751;BME280;30477;48.224;11.470;2024-01-07T04:43:51;95256.34;;;1.73;82.55
44751;BME280;30477;48.224;11.470;2024-01-07T04:46:16;95259.81;;;1.72;82.79
44751;BME280;30477;48.224;11.470;2024-01-07T04:48:42;95259.09;;;1.70;82.30
44751;BME280;30477;48.224;11.470;2024-01-07T04:51:09;95264.41;;;1.67;82.68
44751;BME280;30477;48.224;11.470;2024-01-07T04:53:35;95264.59;;;1.63;82.69
44751;BME280;30477;48.224;11.470;2024-01-07T04:56:01;95261.34;;;1.61;82.72
44751;BME280;30477;48.224;11.470;2024-01-07T04:58:29;95266.97;;;1.67;82.74
44751;BME280;30477;48.224;11.470;2024-01-07T05:00:54;95275.34;;;1.69;82.71
44751;BME280;30477;48.224;11.470;2024-01-07T05:03:19;95274.63;;;1.67;82.62
44751;BME280;30477;48.224;11.470;2024-01-07T05:05:45;95282.47;;;1.63;82.52
44751;BME280;30477;48.224;11.470;2024-01-07T05:08:10;95279.19;;;1.61;82.72
44751;BME280;30477;48.224;11.470;2024-01-07T05:10:35;95284.91;;;1.65;82.53
44751;BME280;30477;48.224;11.470;2024-01-07T05:13:01;95289.22;;;1.65;82.36
44751;BME280;30477;48.224;11.470;2024-01-07T05:15:30;95291.47;;;1.56;82.64
44751;BME280;30477;48.224;11.470;2024-01-07T05:17:55;95293.59;;;1.62;82.63
44751;BME280;30477;48.224;11.470;2024-01-07T05:20:21;95294.31;;;1.65;82.81
44751;BME280;30477;48.224;11.470;2024-01-07T05:22:46;95289.22;;;1.65;82.63
44751;BME280;30477;48.224;11.470;2024-01-07T05:25:11;95292.56;;;1.65;82.48
44751;BME280;30477;48.224;11.470;2024-01-07T05:27:37;95295.22;;;1.63;82.63
44751;BME280;30477;48.224;11.470;2024-01-07T05:30:02;95291.75;;;1.65;82.65
44751;BME280;30477;48.224;11.470;2024-01-07T05:32:28;95298.69;;;1.62;82.55
44751;BME280;30477;48.224;11.470;2024-01-07T05:34:53;95289.81;;;1.68;82.54
44751;BME280;30477;48.224;11.470;2024-01-07T05:37:19;95295.94;;;1.66;82.48
44751;BME280;30477;48.224;11.470;2024-01-07T05:39:44;95299.41;;;1.65;82.27
44751;BME280;30477;48.224;11.470;2024-01-07T05:42:09;95293.59;;;1.62;82.28
44751;BME280;30477;48.224;11.470;2024-01-07T05:44:35;95296.25;;;1.61;82.39
44751;BME280;30477;48.224;11.470;2024-01-07T05:47:00;95303.50;;;1.54;82.39
44751;BME280;30477;48.224;11.470;2024-01-07T05:49:25;95302.88;;;1.51;82.39
44751;BME280;30477;48.224;11.470;2024-01-07T05:51:51;95300.25;;;1.52;82.43
44751;BME280;30477;48.224;11.470;2024-01-07T05:54:16;95302.69;;;1.54;82.78
44751;BME280;30477;48.224;11.470;2024-01-07T05:56:41;95314.81;;;1.50;82.41
44751;BME280;30477;48.224;11.470;2024-01-07T05:59:07;95305.56;;;1.49;82.57
44751;BME280;30477;48.224;11.470;2024-01-07T06:01:32;95313.22;;;1.49;82.55
44751;BME280;30477;48.224;11.470;2024-01-07T06:03:58;95311.97;;;1.42;82.56
44751;BME280;30477;48.224;11.470;2024-01-07T06:06:23;95312.69;;;1.44;82.63
44751;BME280;30477;48.224;11.470;2024-01-07T06:08:49;95316.34;;;1.40;82.60
44751;BME280;30477;48.224;11.470;2024-01-07T06:11:14;95320.97;;;1.35;82.65
44751;BME280;30477;48.224;11.470;2024-01-07T06:13:44;95320.97;;;1.35;82.74
44751;BME280;30477;48.224;11.470;2024-01-07T06:16:10;95320.03;;;1.36;82.84
44751;BME280;30477;48.224;11.470;2024-01-07T06:18:35;95323.19;;;1.39;83.00
44751;BME280;30477;48.224;11.470;2024-01-07T06:21:00;95324.09;;;1.38;83.08
44751;BME280;30477;48.224;11.470;2024-01-07T06:23:26;95331.66;;;1.40;82.77
44751;BME280;30477;48.224;11.470;2024-01-07T06:25:51;95338.81;;;1.35;82.77
44751;BME280;30477;48.224;11.470;2024-01-07T06:28:16;95329.00;;;1.29;83.00
44751;BME280;30477;48.224;11.470;2024-01-07T06:30:42;95329.72;;;1.31;83.07
44751;BME280;30477;48.224;11.470;2024-01-07T06:33:07;95339.00;;;1.32;83.00
44751;BME280;30477;48.224;11.470;2024-01-07T06:35:32;95335.63;;;1.31;83.02
44751;BME280;30477;48.224;11.470;2024-01-07T06:37:58;95333.31;;;1.28;83.10
44751;BME280;30477;48.224;11.470;2024-01-07T06:40:23;95339.41;;;1.26;83.09
44751;BME280;30477;48.224;11.470;2024-01-07T06:42:49;95342.06;;;1.24;83.14
44751;BME280;30477;48.224;11.470;2024-01-07T06:45:15;95344.50;;;1.26;83.08
44751;BME280;30477;48.224;11.470;2024-01-07T06:47:40;95350.44;;;1.26;82.89
44751;BME280;30477;48.224;11.470;2024-01-07T06:50:06;95347.97;;;1.25;83.18
44751;BME280;30477;48.224;11.470;2024-01-07T06:52:31;95355.81;;;1.21;83.25
44751;BME280;30477;48.224;11.470;2024-01-07T06:54:57;95365.91;;;1.23;83.27
44751;BME280;30477;48.224;11.470;2024-01-07T06:57:22;95362.88;;;1.18;83.12
44751;BME280;30477;48.224;11.470;2024-01-07T06:59:47;95368.78;;;1.18;83.21
44751;BME280;30477;48.224;11.470;2024-01-07T07:02:13;95368.69;;;1.20;83.35
44751;BME280;30477;48.224;11.470;2024-01-07T07:04:38;95370.38;;;1.19;83.30
44751;BME280;30477;48.224;11.470;2024-01-07T07:07:03;95365.28;;;1.19;83.57
44751;BME280;30477;48.224;11.470;2024-01-07T07:09:29;95367.66;;;1.23;83.34
44751;BME280;30477;48.224;11.470;2024-01-07T07:11:54;95375.31;;;1.23;83.41
44751;BME280;30477;48.224;11.470;2024-01-07T07:14:19;95381.69;;;1.15;83.04
44751;BME280;30477;48.224;11.470;2024-01-07T07:16:45;95377.72;;;1.11;83.26
44751;BME280;30477;48.224;11.470;2024-01-07T07:19:11;95375.88;;;1.13;83.58
44751;BME280;30477;48.224;11.470;2024-01-07T07:21:40;95384.38;;;1.14;83.18
44751;BME280;30477;48.224;11.470;2024-01-07T07:24:05;95387.91;;;1.11;83.06
44751;BME280;30477;48.224;11.470;2024-01-07T07:26:31;95388.84;;;1.10;83.32
44751;BME280;30477;48.224;11.470;2024-01-07T07:28:56;95393.94;;;1.10;83.30
44751;BME280;30477;48.224;11.470;2024-01-07T07:31:22;95400.78;;;1.10;83.35
44751;BME280;30477;48.224;11.470;2024-01-07T07:33:47;95406.47;;;1.13;83.34
44751;BME280;30477;48.224;11.470;2024-01-07T07:36:14;95401.38;;;1.13;83.23
44751;BME280;30477;48.224;11.470;2024-01-07T07:38:40;95408.28;;;1.11;83.37
44751;BME280;30477;48.224;11.470;2024-01-07T07:41:05;95413.22;;;1.14;83.36
44751;BME280;30477;48.224;11.470;2024-01-07T07:43:32;95416.56;;;1.15;83.30
44751;BME280;30477;48.224;11.470;2024-01-07T07:45:58;95415.94;;;1.11;83.17
44751;BME280;30477;48.224;11.470;2024-01-07T07:48:24;95418.31;;;1.14;83.38
44751;BME280;30477;48.224;11.470;2024-01-07T07:50:51;95426.03;;;1.13;83.28
44751;BME280;30477;48.224;11.470;2024-01-07T07:53:16;95421.38;;;1.19;83.40
44751;BME280;30477;48.224;11.470;2024-01-07T07:55:41;95425.16;;;1.14;83.29
44751;BME280;30477;48.224;11.470;2024-01-07T07:58:07;95426.25;;;1.10;83.41
44751;BME280;30477;48.224;11.470;2024-01-07T08:00:33;95428.88;;;1.08;83.24
44751;BME280;30477;48.224;11.470;2024-01-07T08:02:58;95432.38;;;1.07;83.11
44751;BME280;30477;48.224;11.470;2024-01-07T08:05:24;95429.28;;;1.02;83.35
44751;BME280;30477;48.224;11.470;2024-01-07T08:07:50;95427.38;;;1.06;83.24
44751;BME280;30477;48.224;11.470;2024-01-07T08:10:15;95442.94;;;1.01;83.22
44751;BME280;30477;48.224;11.470;2024-01-07T08:12:41;95432.75;;;1.01;83.27
44751;BME280;30477;48.224;11.470;2024-01-07T08:15:07;95431.91;;;1.00;83.33
44751;BME280;30477;48.224;11.470;2024-01-07T08:17:32;95438.56;;;1.03;83.12
44751;BME280;30477;48.224;11.470;2024-01-07T08:19:57;95451.88;;;0.94;83.04
44751;BME280;30477;48.224;11.470;2024-01-07T08:22:23;95454.25;;;0.97;83.19
44751;BME280;30477;48.224;11.470;2024-01-07T08:24:48;95452.88;;;0.91;83.27
44751;BME280;30477;48.224;11.470;2024-01-07T08:27:15;95457.78;;;0.94;83.26
44751;BME280;30477;48.224;11.470;2024-01-07T08:29:42;95456.88;;;0.95;83.34
44751;BME280;30477;48.224;11.470;2024-01-07T08:32:09;95456.25;;;0.92;83.15
44751;BME280;30477;48.224;11.470;2024-01-07T08:34:34;95460.44;;;0.93;83.36
44751;BME280;30477;48.224;11.470;2024-01-07T08:37:00;95458.22;;;1.01;83.45
44751;BME280;30477;48.224;11.470;2024-01-07T08:39:25;95462.59;;;0.99;82.86
44751;BME280;30477;48.224;11.470;2024-01-07T08:41:51;95464.44;;;0.97;83.21
44751;BME280;30477;48.224;11.470;2024-01-07T08:44:16;95463.72;;;0.95;83.22
44751;BME280;30477;48.224;11.470;2024-01-07T08:46:41;95468.59;;;0.98;83.43
44751;BME280;30477;48.224;11.470;2024-01-07T08:49:07;95468.44;;;1.01;83.05
44751;BME280;30477;48.224;11.470;2024-01-07T08:51:32;95475.53;;;0.96;83.30
44751;BME280;30477;48.224;11.470;2024-01-07T08:53:58;95475.72;;;0.93;83.40
44751;BME280;30477;48.224;11.470;2024-01-07T08:56:24;95477.25;;;0.95;83.00
44751;BME280;30477;48.224;11.470;2024-01-07T08:58:50;95480.63;;;0.96;83.39
44751;BME280;30477;48.224;11.470;2024-01-07T09:01:17;95480.53;;;0.97;83.47
44751;BME280;30477;48.224;11.470;2024-01-07T09:03:42;95488.19;;;0.97;83.47
44751;BME280;30477;48.224;11.470;2024-01-07T09:06:08;95492.09;;;1.03;83.40
44751;BME280;30477;48.224;11.470;2024-01-07T09:08:34;95492.09;;;1.03;83.28
44751;BME280;30477;48.224;11.470;2024-01-07T09:11:00;95494.72;;;1.01;83.37
44751;BME280;30477;48.224;11.470;2024-01-07T09:13:26;95498.88;;;1.02;83.37
44751;BME280;30477;48.224;11.470;2024-01-07T09:15:52;95496.72;;;0.96;83.28
44751;BME280;30477;48.224;11.470;2024-01-07T09:18:17;95502.28;;;1.03;83.17
44751;BME280;30477;48.224;11.470;2024-01-07T09:20:43;95505.94;;;0.99;83.29
44751;BME280;30477;48.224;11.470;2024-01-07T09:23:09;95510.00;;;1.01;83.12
44751;BME280;30477;48.224;11.470;2024-01-07T09:25:34;95508.81;;;1.07;83.05
44751;BME280;30477;48.224;11.470;2024-01-07T09:27:59;95515.09;;;1.01;83.22
44751;BME280;30477;48.224;11.470;2024-01-07T09:30:25;95514.09;;;1.04;83.30
44751;BME280;30477;48.224;11.470;2024-01-07T09:32:51;95514.63;;;1.09;83.24
44751;BME280;30477;48.224;11.470;2024-01-07T09:35:16;95505.34;;;1.08;82.96
44751;BME280;30477;48.224;11.470;2024-01-07T09:37:42;95515.78;;;1.18;83.31
44751;BME280;30477;48.224;11.470;2024-01-07T09:40:08;95517.69;;;1.14;83.00
44751;BME280;30477;48.224;11.470;2024-01-07T09:42:33;95508.69;;;1.09;83.00
44751;BME280;30477;48.224;11.470;2024-01-07T09:45:02;95514.19;;;1.02;82.84
44751;BME280;30477;48.224;11.470;2024-01-07T09:47:28;95512.09;;;1.09;82.95
44751;BME280;30477;48.224;11.470;2024-01-07T09:49:54;95514.19;;;1.02;82.88
44751;BME280;30477;48.224;11.470;2024-01-07T09:52:20;95518.66;;;0.99;82.82
44751;BME280;30477;48.224;11.470;2024-01-07T09:54:51;95519.41;;;1.01;83.06
44751;BME280;30477;48.224;11.470;2024-01-07T09:57:16;95511.91;;;0.98;82.93
44751;BME280;30477;48.224;11.470;2024-01-07T09:59:42;95528.13;;;0.97;82.94
44751;BME280;30477;48.224;11.470;2024-01-07T10:02:07;95520.00;;;1.05;83.09
44751;BME280;30477;48.224;11.470;2024-01-07T10:04:32;95520.44;;;1.11;82.94
44751;BME280;30477;48.224;11.470;2024-01-07T10:06:58;95519.19;;;1.04;82.78
44751;BME280;30477;48.224;11.470;2024-01-07T10:09:24;95525.72;;;1.08;82.73
44751;BME280;30477;48.224;11.470;2024-01-07T10:11:51;95518.91;;;1.09;82.88
44751;BME280;30477;48.224;11.470;2024-01-07T10:14:17;95523.38;;;1.05;82.86
44751;BME280;30477;48.224;11.470;2024-01-07T10:16:42;95517.63;;;1.16;82.92
44751;BME280;30477;48.224;11.470;2024-01-07T10:19:07;95520.63;;;1.08;82.87
44751;BME280;30477;48.224;11.470;2024-01-07T10:21:34;95524.00;;;1.09;82.79
44751;BME280;30477;48.224;11.470;2024-01-07T10:24:11;95523.25;;;1.07;82.76
44751;BME280;30477;48.224;11.470;2024-01-07T10:26:38;95523.91;;;1.10;82.65
44751;BME280;30477;48.224;11.470;2024-01-07T10:29:04;95520.00;;;1.05;82.71
44751;BME280;30477;48.224;11.470;2024-01-07T10:31:29;95527.19;;;1.12;82.63
44751;BME280;30477;48.224;11.470;2024-01-07T10:33:56;95526.66;;;1.07;82.58
44751;BME280;30477;48.224;11.470;2024-01-07T10:36:22;95530.47;;;1.00;82.61
44751;BME280;30477;48.224;11.470;2024-01-07T10:38:49;95529.38;;;1.04;82.62
44751;BME280;30477;48.224;11.470;2024-01-07T10:41:19;95529.81;;;1.11;82.75
44751;BME280;30477;48.224;11.470;2024-01-07T10:43:47;95527.25;;;1.11;82.77
44751;BME280;30477;48.224;11.470;2024-01-07T10:46:14;95525.78;;;1.21;82.82
44751;BME280;30477;48.224;11.470;2024-01-07T10:51:13;95526.41;;;1.25;82.68
44751;BME280;30477;48.224;11.470;2024-01-07T10:53:42;95530.50;;;1.27;82.80
44751;BME280;30477;48.224;11.470;2024-01-07T10:56:11;95536.34;;;1.42;82.74
44751;BME280;30477;48.224;11.470;2024-01-07T10:58:39;95530.41;;;1.29;82.68
44751;BME280;30477;48.224;11.470;2024-01-07T11:01:06;95539.69;;;1.30;82.73
44751;BME280;30477;48.224;11.470;2024-01-07T11:03:45;95545.22;;;1.09;82.21
44751;BME280;30477;48.224;11.470;2024-01-07T11:09:02;95534.09;;;1.10;82.89
44751;BME280;30477;48.224;11.470;2024-01-07T11:11:38;95534.09;;;1.10;82.82
44751;BME280;30477;48.224;11.470;2024-01-07T11:17:01;95537.56;;;1.09;82.86
44751;BME280;30477;48.224;11.470;2024-01-07T11:19:27;95532.47;;;1.09;83.04
44751;BME280;30477;48.224;11.470;2024-01-07T11:21:53;95529.00;;;1.10;82.92
44751;BME280;30477;48.224;11.470;2024-01-07T11:24:37;95533.59;;;1.05;82.66
44751;BME280;30477;48.224;11.470;2024-01-07T11:27:03;95543.59;;;0.94;82.66
44751;BME280;30477;48.224;11.470;2024-01-07T11:29:31;95535.91;;;1.08;82.95
44751;BME280;30477;48.224;11.470;2024-01-07T11:31:56;95536.00;;;1.07;82.72
44751;BME280;30477;48.224;11.470;2024-01-07T11:37:09;95538.53;;;0.79;82.45
44751;BME280;30477;48.224;11.470;2024-01-07T11:39:35;95538.16;;;0.71;82.63
44751;BME280;30477;48.224;11.470;2024-01-07T11:42:02;95538.94;;;0.59;82.51
44751;BME280;30477;48.224;11.470;2024-01-07T11:44:28;95546.94;;;0.53;82.52
44751;BME280;30477;48.224;11.470;2024-01-07T11:46:53;95544.63;;;0.48;82.70
44751;BME280;30477;48.224;11.470;2024-01-07T11:49:19;95549.13;;;0.45;82.74
44751;BME280;30477;48.224;11.470;2024-01-07T11:51:44;95551.47;;;0.48;83.11
44751;BME280;30477;48.224;11.470;2024-01-07T11:54:11;95554.75;;;0.50;83.33
44751;BME280;30477;48.224;11.470;2024-01-07T11:56:37;95553.63;;;0.39;82.93
44751;BME280;30477;48.224;11.470;2024-01-07T11:59:03;95552.53;;;0.29;83.14
44751;BME280;30477;48.224;11.470;2024-01-07T12:01:28;95542.19;;;0.32;83.51
44751;BME280;30477;48.224;11.470;2024-01-07T12:03:53;95559.09;;;0.33;83.92
44751;BME280;30477;48.224;11.470;2024-01-07T12:06:19;95551.28;;;0.36;83.72
44751;BME280;30477;48.224;11.470;2024-01-07T12:08:44;95562.72;;;0.29;83.65
44751;BME280;30477;48.224;11.470;2024-01-07T12:11:14;95557.28;;;0.21;83.75
44751;BME280;30477;48.224;11.470;2024-01-07T12:13:41;95550.63;;;0.18;84.17
44751;BME280;30477;48.224;11.470;2024-01-07T12:16:08;95563.63;;;0.14;84.23
44751;BME280;30477;48.224;11.470;2024-01-07T12:18:36;95564.91;;;0.21;84.33
44751;BME280;30477;48.224;11.470;2024-01-07T12:21:02;95566.53;;;0.22;84.31
44751;BME280;30477;48.224;11.470;2024-01-07T12:23:27;95571.28;;;0.28;84.49
44751;BME280;30477;48.224;11.470;2024-01-07T12:25:53;95568.66;;;0.30;84.59
44751;BME280;30477;48.224;11.470;2024-01-07T12:28:19;95572.91;;;0.29;84.73
44751;BME280;30477;48.224;11.470;2024-01-07T12:30:45;95576.19;;;0.31;84.63
44751;BME280;30477;48.224;11.470;2024-01-07T12:33:10;95573.47;;;0.34;84.62
44751;BME280;30477;48.224;11.470;2024-01-07T12:35:36;95573.47;;;0.34;84.84
44751;BME280;30477;48.224;11.470;2024-01-07T12:38:02;95571.94;;;0.32;84.67
44751;BME280;30477;48.224;11.470;2024-01-07T12:40:27;95573.25;;;0.23;84.67
44751;BME280;30477;48.224;11.470;2024-01-07T12:42:53;95581.00;;;0.22;84.63
44751;BME280;30477;48.224;11.470;2024-01-07T12:45:18;95580.19;;;0.21;84.63
44751;BME280;30477;48.224;11.470;2024-01-07T12:47:44;95585.81;;;0.26;84.86
44751;BME280;30477;48.224;11.470;2024-01-07T12:50:11;95586.47;;;0.30;84.71
44751;BME280;30477;48.224;11.470;2024-01-07T12:52:37;95588.38;;;0.26;84.80
44751;BME280;30477;48.224;11.470;2024-01-07T12:55:06;95593.09;;;0.32;84.79
44751;BME280;30477;48.224;11.470;2024-01-07T12:57:32;95594.72;;;0.33;84.92
44751;BME280;30477;48.224;11.470;2024-01-07T12:59:57;95603.81;;;0.37;84.84
44751;BME280;30477;48.224;11.470;2024-01-07T13:02:23;95600.91;;;0.44;84.76
44751;BME280;30477;48.224;11.470;2024-01-07T13:04:49;95599.66;;;0.36;84.43